createdAt,value
2023-01-18T00:01:30.055Z,16.07
2023-01-18T00:03:57.706Z,16.67
2023-01-18T00:06:27.835Z,17.73
2023-01-18T00:08:57.500Z,17.67
2023-01-18T00:11:26.670Z,17.43
2023-01-18T00:13:54.602Z,17.13
2023-01-18T00:16:21.849Z,18.20
2023-01-18T00:18:53.321Z,16.03
2023-01-18T00:21:21.190Z,15.80
2023-01-18T00:23:48.913Z,16.70
2023-01-18T00:26:21.799Z,19.43
2023-01-18T00:28:51.312Z,16.17
2023-01-18T00:31:20.693Z,18.10
2023-01-18T00:33:49.550Z,16.13
2023-01-18T00:36:17.648Z,17.20
2023-01-18T00:38:45.189Z,14.60
2023-01-18T00:41:13.284Z,14.67
2023-01-18T00:43:45.771Z,18.53
2023-01-18T00:46:23.201Z,17.23
2023-01-18T00:48:51.129Z,17.23
2023-01-18T00:51:22.679Z,15.47
2023-01-18T00:53:50.134Z,17.30
2023-01-18T00:56:19.986Z,16.43
2023-01-18T00:58:48.171Z,16.67
2023-01-18T01:01:16.279Z,17.07
2023-01-18T01:04:01.863Z,16.43
2023-01-18T01:06:45.665Z,14.20
2023-01-18T01:09:15.758Z,14.83
2023-01-18T01:12:03.582Z,17.00
2023-01-18T01:14:49.307Z,16.77
2023-01-18T01:17:35.361Z,15.70
2023-01-18T01:20:21.839Z,15.83
2023-01-18T01:23:08.489Z,16.90
2023-01-18T01:25:56.713Z,15.50
2023-01-18T01:28:25.139Z,19.03
2023-01-18T01:30:57.981Z,16.73
2023-01-18T01:33:25.582Z,16.57
2023-01-18T01:36:00.666Z,16.57
2023-01-18T01:38:30.278Z,15.67
2023-01-18T01:41:07.762Z,16.30
2023-01-18T01:43:55.343Z,16.13
2023-01-18T01:46:35.436Z,15.48
2023-01-18T01:49:24.110Z,16.80
2023-01-18T01:51:52.921Z,18.20
2023-01-18T01:54:24.032Z,16.97
2023-01-18T01:56:51.894Z,15.80
2023-01-18T01:59:20.198Z,16.30
2023-01-18T02:01:47.587Z,16.90
2023-01-18T02:04:15.899Z,16.80
2023-01-18T02:06:44.478Z,19.63
2023-01-18T02:09:13.748Z,15.80
2023-01-18T02:11:41.280Z,17.50
2023-01-18T02:14:11.204Z,16.30
2023-01-18T02:17:02.123Z,19.30
2023-01-18T02:19:56.197Z,18.27
2023-01-18T02:22:44.890Z,15.80
2023-01-18T02:25:28.549Z,17.60
2023-01-18T02:28:12.792Z,17.13
2023-01-18T02:31:12.573Z,18.77
2023-01-18T02:33:47.099Z,18.93
2023-01-18T02:36:22.653Z,18.80
2023-01-18T02:38:50.747Z,21.20
2023-01-18T02:42:01.897Z,18.43
2023-01-18T02:44:55.521Z,19.23
2023-01-18T02:47:23.779Z,20.37
2023-01-18T02:49:51.805Z,22.10
2023-01-18T02:52:47.281Z,19.77
2023-01-18T02:55:32.674Z,21.10
2023-01-18T02:58:19.238Z,18.03
2023-01-18T03:01:01.051Z,21.40
2023-01-18T03:03:29.438Z,19.63
2023-01-18T03:05:59.938Z,21.63
2023-01-18T03:08:42.881Z,19.37
2023-01-18T03:11:19.713Z,23.17
2023-01-18T03:14:21.019Z,22.27
2023-01-18T03:17:10.436Z,24.00
2023-01-18T03:20:06.425Z,21.33
2023-01-18T03:23:00.239Z,23.67
2023-01-18T03:25:30.032Z,23.27
2023-01-18T03:28:16.298Z,22.83
2023-01-18T03:31:02.767Z,25.27
2023-01-18T03:33:44.070Z,23.63
2023-01-18T03:36:54.855Z,23.27
2023-01-18T03:39:37.709Z,23.73
2023-01-18T03:42:09.851Z,23.40
2023-01-18T03:44:39.827Z,22.87
2023-01-18T03:47:07.599Z,24.43
2023-01-18T03:49:36.095Z,21.77
2023-01-18T03:52:46.524Z,24.63
2023-01-18T03:55:54.129Z,20.60
2023-01-18T03:58:27.913Z,22.63
2023-01-18T04:00:56.181Z,21.73
2023-01-18T04:03:24.063Z,23.43
2023-01-18T04:05:52.290Z,18.90
2023-01-18T04:08:22.004Z,22.87
2023-01-18T04:10:49.640Z,22.70
2023-01-18T04:13:17.964Z,19.77
2023-01-18T04:15:46.181Z,18.80
2023-01-18T04:18:14.412Z,21.73
2023-01-18T04:20:43.285Z,21.57
2023-01-18T04:23:11.204Z,22.07
2023-01-18T04:25:40.964Z,19.67
2023-01-18T04:28:09.212Z,20.33
2023-01-18T04:30:37.833Z,23.83
2023-01-18T04:33:06.279Z,20.07
2023-01-18T04:35:34.817Z,21.37
2023-01-18T04:38:02.805Z,18.53
2023-01-18T04:40:30.439Z,20.00
2023-01-18T04:42:59.354Z,23.67
2023-01-18T04:45:27.646Z,21.27
2023-01-18T04:47:55.854Z,22.30
2023-01-18T04:50:24.029Z,20.53
2023-01-18T04:52:53.661Z,21.80
2023-01-18T04:55:22.185Z,24.80
2023-01-18T04:57:55.651Z,24.67
2023-01-18T05:00:24.993Z,25.00
2023-01-18T05:02:53.127Z,26.43
2023-01-18T05:05:21.489Z,22.67
2023-01-18T05:07:50.364Z,23.33
2023-01-18T05:10:18.712Z,27.03
2023-01-18T05:12:47.233Z,25.67
2023-01-18T05:15:15.655Z,23.50
2023-01-18T05:17:43.909Z,23.63
2023-01-18T05:20:11.952Z,23.87
2023-01-18T05:22:39.652Z,22.10
2023-01-18T05:25:10.407Z,23.67
2023-01-18T05:27:38.227Z,20.77
2023-01-18T05:30:09.038Z,23.87
2023-01-18T05:32:36.844Z,23.20
2023-01-18T05:35:06.650Z,24.33
2023-01-18T05:37:34.774Z,24.03
2023-01-18T05:40:03.708Z,23.87
2023-01-18T05:42:32.334Z,25.53
2023-01-18T05:45:02.391Z,24.80
2023-01-18T05:47:30.753Z,29.53
2023-01-18T05:50:00.296Z,22.97
2023-01-18T05:52:27.831Z,24.73
2023-01-18T05:54:55.513Z,25.77
2023-01-18T05:57:23.794Z,23.13
2023-01-18T05:59:52.433Z,24.17
2023-01-18T06:02:20.359Z,23.07
2023-01-18T06:04:48.627Z,23.77
2023-01-18T06:07:17.126Z,26.67
2023-01-18T06:09:45.174Z,23.47
2023-01-18T06:12:13.406Z,21.73
2023-01-18T06:14:41.629Z,34.00
2023-01-18T06:17:09.890Z,31.80
2023-01-18T06:19:37.987Z,25.60
2023-01-18T06:22:06.268Z,22.97
2023-01-18T06:24:34.847Z,22.33
2023-01-18T06:27:04.171Z,24.00
2023-01-18T06:29:31.832Z,27.30
2023-01-18T06:31:59.512Z,26.27
2023-01-18T06:34:30.217Z,29.10
2023-01-18T06:36:58.586Z,25.50
2023-01-18T06:39:27.264Z,24.30
2023-01-18T06:41:55.794Z,26.47
2023-01-18T06:44:24.097Z,28.83
2023-01-18T06:46:52.271Z,25.50
2023-01-18T06:49:22.053Z,28.73
2023-01-18T06:51:50.309Z,27.63
2023-01-18T06:54:18.077Z,28.60
2023-01-18T06:56:46.270Z,28.07
2023-01-18T06:59:14.266Z,30.30
2023-01-18T07:01:42.665Z,25.20
2023-01-18T07:04:10.432Z,27.10
2023-01-18T07:06:41.460Z,27.30
2023-01-18T07:09:10.573Z,27.40
2023-01-18T07:11:39.390Z,28.87
2023-01-18T07:14:07.641Z,26.53
2023-01-18T07:16:36.390Z,30.43
2023-01-18T07:19:04.752Z,26.17
2023-01-18T07:21:33.148Z,26.17
2023-01-18T07:24:01.999Z,28.57
2023-01-18T07:26:32.221Z,27.40
2023-01-18T07:29:00.674Z,27.73
2023-01-18T07:31:28.448Z,27.97
2023-01-18T07:33:56.599Z,26.07
2023-01-18T07:36:24.671Z,29.23
2023-01-18T07:38:52.453Z,31.20
2023-01-18T07:41:20.100Z,30.27
2023-01-18T07:43:48.525Z,26.87
2023-01-18T07:46:18.976Z,26.97
2023-01-18T07:48:47.786Z,25.27
2023-01-18T07:51:35.209Z,28.17
2023-01-18T07:54:03.646Z,29.25
2023-01-18T07:56:31.788Z,23.70
2023-01-18T07:58:59.839Z,27.70
2023-01-18T08:01:28.614Z,32.40
2023-01-18T08:03:56.513Z,26.30
2023-01-18T08:06:25.265Z,28.00
2023-01-18T08:08:53.191Z,30.17
2023-01-18T08:11:21.198Z,28.23
2023-01-18T08:13:49.476Z,30.63
2023-01-18T08:16:19.217Z,31.73
2023-01-18T08:18:49.011Z,28.60
2023-01-18T08:21:16.986Z,28.33
2023-01-18T08:23:44.645Z,27.07
2023-01-18T08:26:13.790Z,27.33
2023-01-18T08:28:42.220Z,27.50
2023-01-18T08:31:19.889Z,26.83
2023-01-18T08:33:48.881Z,25.53
2023-01-18T08:36:18.377Z,29.23
2023-01-18T08:38:50.424Z,29.33
2023-01-18T08:41:21.228Z,27.73
2023-01-18T08:43:52.457Z,29.13
2023-01-18T08:46:20.939Z,26.80
2023-01-18T08:48:52.938Z,29.57
2023-01-18T08:51:21.953Z,28.37
2023-01-18T08:53:51.740Z,27.40
2023-01-18T08:56:20.488Z,31.67
2023-01-18T08:58:48.107Z,27.20
2023-01-18T09:01:15.830Z,30.77
2023-01-18T09:03:44.096Z,29.80
2023-01-18T09:06:13.156Z,26.87
2023-01-18T09:08:41.295Z,30.13
2023-01-18T09:11:10.408Z,26.03
2023-01-18T09:13:47.876Z,29.43
2023-01-18T09:16:26.702Z,29.50
2023-01-18T09:18:55.537Z,29.20
2023-01-18T09:21:23.712Z,27.57
2023-01-18T09:23:51.055Z,29.33
2023-01-18T09:26:20.935Z,33.33
2023-01-18T09:28:49.828Z,37.47
2023-01-18T09:31:18.716Z,32.37
2023-01-18T09:33:53.166Z,32.47
2023-01-18T09:36:24.075Z,32.33
2023-01-18T09:38:52.272Z,33.27
2023-01-18T09:41:36.641Z,30.90
2023-01-18T09:44:53.343Z,26.87
2023-01-18T09:47:35.121Z,29.43
2023-01-18T09:50:13.336Z,32.57
2023-01-18T09:53:05.827Z,30.20
2023-01-18T09:55:39.025Z,28.30
2023-01-18T09:58:11.976Z,30.87
2023-01-18T10:00:45.201Z,27.53
2023-01-18T10:03:42.048Z,31.93
2023-01-18T10:06:15.554Z,33.90
2023-01-18T10:09:18.090Z,40.20
2023-01-18T10:12:14.289Z,30.80
2023-01-18T10:15:05.472Z,35.73
2023-01-18T10:17:38.322Z,33.20
2023-01-18T10:21:01.075Z,32.30
2023-01-18T10:23:40.555Z,34.33
2023-01-18T10:26:16.766Z,36.57
2023-01-18T10:28:59.160Z,34.03
2023-01-18T10:31:50.707Z,39.73
2023-01-18T10:34:21.966Z,34.80
2023-01-18T10:36:56.215Z,37.30
2023-01-18T10:39:44.480Z,39.03
2023-01-18T10:42:22.586Z,40.40
2023-01-18T10:44:52.495Z,37.80
2023-01-18T10:47:20.873Z,38.30
2023-01-18T10:49:50.515Z,38.37
2023-01-18T10:52:22.893Z,40.90
2023-01-18T10:54:52.065Z,38.37
2023-01-18T10:57:22.350Z,37.83
2023-01-18T10:59:51.642Z,37.90
2023-01-18T11:02:23.568Z,45.17
2023-01-18T11:05:02.923Z,44.67
2023-01-18T11:07:30.553Z,36.57
2023-01-18T11:10:01.752Z,35.57
2023-01-18T11:12:37.590Z,36.40
2023-01-18T11:15:13.820Z,31.40
2023-01-18T11:17:56.437Z,27.38
2023-01-18T11:20:35.825Z,29.20
2023-01-18T11:23:06.979Z,27.30
2023-01-18T11:25:53.311Z,30.83
2023-01-18T11:28:29.397Z,29.67
2023-01-18T11:31:15.876Z,24.83
2023-01-18T11:33:54.353Z,28.50
2023-01-18T11:36:33.062Z,31.70
2023-01-18T11:39:35.294Z,28.23
2023-01-18T11:42:26.502Z,30.67
2023-01-18T11:44:58.703Z,37.03
2023-01-18T11:47:34.426Z,31.67
2023-01-18T11:50:21.997Z,33.00
2023-01-18T11:53:04.992Z,28.83
2023-01-18T11:56:06.712Z,28.20
2023-01-18T11:58:34.659Z,27.60
2023-01-18T12:01:53.217Z,28.53
2023-01-18T12:04:40.033Z,27.85
2023-01-18T12:07:27.655Z,27.75
2023-01-18T12:12:52.853Z,25.53
2023-01-18T12:15:52.168Z,27.33
2023-01-18T12:18:38.386Z,24.30
2023-01-18T12:21:17.293Z,27.40
2023-01-18T12:24:35.594Z,32.73
2023-01-18T12:27:05.444Z,29.97
2023-01-18T12:29:42.486Z,30.37
2023-01-18T12:32:10.119Z,30.77
2023-01-18T12:35:24.072Z,31.33
2023-01-18T12:38:25.108Z,37.10
2023-01-18T12:40:58.283Z,30.63
2023-01-18T12:43:38.455Z,30.93
2023-01-18T12:46:29.254Z,28.93
2023-01-18T12:48:59.189Z,32.53
2023-01-18T12:51:27.472Z,28.50
2023-01-18T12:54:02.694Z,28.33
2023-01-18T12:56:50.691Z,31.30
2023-01-18T12:59:42.051Z,33.60
2023-01-18T13:02:40.583Z,29.97
2023-01-18T13:05:13.025Z,29.60
2023-01-18T13:07:42.288Z,31.00
2023-01-18T13:10:23.710Z,30.50
2023-01-18T13:12:51.059Z,31.33
2023-01-18T13:15:48.171Z,30.80
2023-01-18T13:18:47.445Z,33.67
2023-01-18T13:21:28.334Z,34.03
2023-01-18T13:24:02.868Z,33.80
2023-01-18T13:26:31.412Z,30.40
2023-01-18T13:29:10.387Z,41.77
2023-01-18T13:31:39.204Z,32.17
2023-01-18T13:34:08.097Z,34.17
2023-01-18T13:36:45.326Z,33.40
2023-01-18T13:39:17.272Z,29.73
2023-01-18T13:42:02.383Z,35.03
2023-01-18T13:44:37.040Z,53.83
2023-01-18T13:47:25.383Z,37.53
2023-01-18T13:49:53.633Z,79.97
2023-01-18T13:52:35.531Z,39.13
2023-01-18T13:55:23.991Z,32.50
2023-01-18T13:57:58.335Z,42.67
2023-01-18T14:00:25.517Z,31.33
2023-01-18T14:03:22.885Z,34.30
2023-01-18T14:05:50.715Z,35.63
2023-01-18T14:08:24.958Z,31.53
2023-01-18T14:10:55.581Z,29.70
2023-01-18T14:13:41.827Z,39.40
2023-01-18T14:16:26.360Z,36.10
2023-01-18T14:19:13.864Z,35.53
2023-01-18T14:22:11.115Z,34.70
2023-01-18T14:24:56.731Z,37.90
2023-01-18T14:27:25.500Z,36.03
2023-01-18T14:30:14.332Z,36.43
2023-01-18T14:32:44.950Z,42.33
2023-01-18T14:35:52.137Z,38.10
2023-01-18T14:38:19.931Z,37.83
2023-01-18T14:40:48.771Z,35.03
2023-01-18T14:43:49.874Z,39.60
2023-01-18T14:46:21.891Z,40.53
2023-01-18T14:48:53.930Z,46.77
2023-01-18T14:51:25.849Z,41.97
2023-01-18T14:54:00.714Z,49.67
2023-01-18T14:56:30.322Z,39.00
2023-01-18T14:59:03.060Z,38.80
2023-01-18T15:02:00.045Z,36.00
2023-01-18T15:04:29.148Z,34.93
2023-01-18T15:07:04.838Z,37.53
2023-01-18T15:09:33.110Z,35.47
2023-01-18T15:12:02.010Z,31.50
2023-01-18T15:14:31.425Z,35.73
2023-01-18T15:16:58.858Z,33.13
2023-01-18T15:19:42.971Z,34.47
2023-01-18T15:22:11.859Z,34.70
2023-01-18T15:24:40.443Z,33.30
2023-01-18T15:27:11.714Z,35.23
2023-01-18T15:29:39.262Z,31.33
2023-01-18T15:32:17.586Z,35.90
2023-01-18T15:34:46.218Z,37.77
2023-01-18T15:37:31.036Z,41.30
2023-01-18T15:39:58.175Z,36.60
2023-01-18T15:42:44.848Z,34.63
2023-01-18T15:45:21.628Z,34.73
2023-01-18T15:47:50.816Z,33.63
2023-01-18T15:50:32.106Z,30.50
2023-01-18T15:53:06.795Z,35.17
2023-01-18T15:55:53.447Z,34.30
2023-01-18T15:58:27.696Z,32.37
2023-01-18T16:00:57.069Z,39.53
2023-01-18T16:03:29.586Z,36.47
2023-01-18T16:06:07.906Z,34.47
2023-01-18T16:08:36.202Z,35.37
2023-01-18T16:11:06.106Z,32.47
2023-01-18T16:13:40.078Z,36.63
2023-01-18T16:16:15.384Z,37.60
2023-01-18T16:19:04.921Z,39.20
2023-01-18T16:22:06.715Z,39.37
2023-01-18T16:24:33.674Z,39.17
2023-01-18T16:27:08.082Z,35.50
2023-01-18T16:29:48.095Z,34.80
2023-01-18T16:32:29.916Z,35.57
2023-01-18T16:35:21.775Z,35.30
2023-01-18T16:37:49.815Z,36.33
2023-01-18T16:40:20.100Z,43.27
2023-01-18T16:43:02.941Z,34.90
2023-01-18T16:45:31.747Z,38.17
2023-01-18T16:47:59.541Z,38.70
2023-01-18T16:50:28.735Z,33.90
2023-01-18T16:52:56.202Z,40.17
2023-01-18T16:55:24.427Z,38.40
2023-01-18T16:57:52.536Z,35.10
2023-01-18T17:00:24.576Z,31.93
2023-01-18T17:02:53.686Z,42.57
2023-01-18T17:05:21.705Z,49.70
2023-01-18T17:07:51.803Z,46.30
2023-01-18T17:10:30.213Z,37.63
2023-01-18T17:13:00.180Z,41.40
2023-01-18T17:15:30.120Z,46.30
2023-01-18T17:17:57.969Z,126.70
2023-01-18T17:20:25.958Z,68.70
2023-01-18T17:22:54.048Z,55.77
2023-01-18T17:25:21.625Z,56.53
2023-01-18T17:27:48.856Z,53.57
2023-01-18T17:30:19.172Z,43.63
2023-01-18T17:32:47.759Z,50.33
2023-01-18T17:35:16.548Z,45.73
2023-01-18T17:37:44.681Z,50.43
2023-01-18T17:40:23.458Z,42.27
2023-01-18T17:42:51.813Z,36.00
2023-01-18T17:45:19.974Z,30.90
2023-01-18T17:47:47.610Z,30.33
2023-01-18T17:50:21.738Z,36.23
2023-01-18T17:52:49.750Z,32.87
2023-01-18T17:55:24.064Z,29.90
2023-01-18T17:57:54.311Z,35.47
2023-01-18T18:00:22.862Z,35.63
2023-01-18T18:02:57.410Z,37.13
2023-01-18T18:05:25.131Z,39.90
2023-01-18T18:07:53.112Z,39.33
2023-01-18T18:10:20.652Z,37.90
2023-01-18T18:12:48.871Z,37.87
2023-01-18T18:15:19.521Z,40.53
2023-01-18T18:17:47.663Z,40.43
2023-01-18T18:20:17.383Z,40.03
2023-01-18T18:22:45.601Z,35.20
2023-01-18T18:25:12.821Z,35.23
2023-01-18T18:27:47.907Z,41.20
2023-01-18T18:30:17.720Z,32.77
2023-01-18T18:32:45.912Z,35.43
2023-01-18T18:35:25.158Z,33.60
2023-01-18T18:37:54.344Z,36.43
2023-01-18T18:40:25.780Z,38.17
2023-01-18T18:43:02.048Z,38.40
2023-01-18T18:45:32.145Z,32.42
2023-01-18T18:48:00.632Z,34.23
2023-01-18T18:50:27.942Z,36.13
2023-01-18T18:52:55.917Z,35.80
2023-01-18T18:55:24.464Z,37.03
2023-01-18T18:57:51.902Z,35.87
2023-01-18T19:00:21.438Z,35.97
2023-01-18T19:02:48.813Z,38.90
2023-01-18T19:05:16.815Z,48.90
2023-01-18T19:07:47.154Z,35.23
2023-01-18T19:10:14.915Z,34.43
2023-01-18T19:12:43.098Z,31.90
2023-01-18T19:15:14.284Z,36.60
2023-01-18T19:17:42.275Z,34.40
2023-01-18T19:20:14.011Z,37.77
2023-01-18T19:22:41.915Z,38.27
2023-01-18T19:25:11.318Z,39.33
2023-01-18T19:27:39.348Z,35.57
2023-01-18T19:30:13.282Z,37.30
2023-01-18T19:32:41.816Z,35.07
2023-01-18T19:37:45.210Z,43.43
2023-01-18T19:40:18.255Z,34.23
2023-01-18T19:42:47.189Z,33.37
2023-01-18T19:45:27.013Z,34.63
2023-01-18T19:50:37.513Z,37.43
2023-01-18T19:53:06.250Z,38.40
2023-01-18T19:55:44.175Z,46.63
2023-01-18T19:58:13.295Z,40.63
2023-01-18T20:00:53.376Z,38.83
2023-01-18T20:03:29.842Z,43.50
2023-01-18T20:05:59.184Z,39.87
2023-01-18T20:08:34.469Z,41.57
2023-01-18T20:16:22.277Z,58.77
2023-01-18T20:18:51.404Z,43.40
2023-01-18T20:21:19.790Z,38.23
2023-01-18T20:23:48.464Z,40.43
2023-01-18T20:26:22.121Z,37.60
2023-01-18T20:28:56.085Z,38.95
2023-01-18T20:31:23.953Z,47.73
2023-01-18T20:33:52.285Z,42.30
2023-01-18T20:36:20.638Z,42.03
2023-01-18T20:38:49.303Z,36.83
2023-01-18T20:41:17.629Z,44.90
2023-01-18T20:43:46.472Z,43.03
2023-01-18T20:46:14.407Z,41.63
2023-01-18T20:48:45.942Z,43.90
2023-01-18T20:51:13.770Z,42.57
2023-01-18T20:53:41.333Z,40.57
2023-01-18T20:56:27.826Z,45.30
2023-01-18T20:58:56.791Z,37.10
2023-01-18T21:01:31.963Z,39.27
2023-01-18T21:04:03.441Z,41.83
2023-01-18T21:06:31.092Z,33.80
2023-01-18T21:08:59.842Z,35.67
2023-01-18T21:11:27.037Z,41.10
2023-01-18T21:13:59.206Z,40.03
2023-01-18T21:16:27.929Z,40.07
2023-01-18T21:18:59.297Z,42.07
2023-01-18T21:21:27.316Z,45.20
2023-01-18T21:23:55.457Z,51.33
2023-01-18T21:26:23.666Z,41.87
2023-01-18T21:28:51.709Z,44.23
2023-01-18T21:31:19.482Z,39.53
2023-01-18T21:33:47.762Z,39.80
2023-01-18T21:36:17.556Z,41.60
2023-01-18T21:38:45.354Z,40.07
2023-01-18T21:41:31.619Z,39.63
2023-01-18T21:44:18.062Z,40.43
2023-01-18T21:46:46.720Z,43.90
2023-01-18T21:49:52.198Z,45.17
2023-01-18T21:52:40.171Z,36.83
2023-01-18T21:55:09.054Z,41.20
2023-01-18T21:57:36.809Z,43.10
2023-01-18T22:00:05.626Z,44.57
2023-01-18T22:02:33.571Z,43.53
2023-01-18T22:05:03.302Z,43.07
2023-01-18T22:07:31.916Z,45.33
2023-01-18T22:10:05.062Z,45.50
2023-01-18T22:12:35.234Z,45.73
2023-01-18T22:15:07.672Z,38.60
2023-01-18T22:17:35.153Z,41.57
2023-01-18T22:20:03.174Z,43.47
2023-01-18T22:22:31.735Z,42.73
2023-01-18T22:25:02.234Z,40.70
2023-01-18T22:27:29.964Z,43.27
2023-01-18T22:30:01.147Z,41.93
2023-01-18T22:32:29.089Z,38.73
2023-01-18T22:34:57.674Z,36.83
2023-01-18T22:37:28.328Z,41.53
2023-01-18T22:39:56.570Z,40.63
2023-01-18T22:42:24.483Z,40.17
2023-01-18T22:44:52.088Z,37.87
2023-01-18T22:47:21.279Z,41.77
2023-01-18T22:49:49.090Z,35.23
2023-01-18T22:52:16.258Z,38.77
2023-01-18T22:54:44.266Z,39.73
2023-01-18T22:57:11.972Z,35.17
2023-01-18T22:59:39.942Z,37.83
2023-01-18T23:02:07.977Z,40.13
2023-01-18T23:04:35.770Z,35.43
2023-01-18T23:09:46.895Z,35.87
2023-01-18T23:12:16.273Z,38.13
2023-01-18T23:15:03.480Z,39.03
2023-01-18T23:22:48.555Z,37.83
2023-01-18T23:25:17.323Z,40.57
2023-01-18T23:27:45.809Z,37.50
2023-01-18T23:30:15.014Z,34.80
2023-01-18T23:32:42.769Z,36.70
2023-01-18T23:35:12.313Z,37.57
2023-01-18T23:37:40.781Z,40.40
2023-01-18T23:40:31.309Z,37.13
2023-01-18T23:43:17.512Z,35.93
2023-01-18T23:46:03.940Z,35.83
2023-01-18T23:48:49.801Z,36.47
2023-01-18T23:51:36.146Z,36.27
2023-01-18T23:54:12.933Z,37.17
2023-01-18T23:56:41.036Z,42.05
2023-01-18T23:59:11.547Z,37.90
